createdAt,value
2019-01-27T00:01:50.669Z,99.90
2019-01-27T00:04:24.273Z,99.90
2019-01-27T00:06:56.062Z,99.90
2019-01-27T00:09:27.794Z,99.90
2019-01-27T00:11:59.680Z,99.90
2019-01-27T00:14:31.349Z,99.90
2019-01-27T00:17:03.223Z,99.90
2019-01-27T00:19:35.724Z,99.90
2019-01-27T00:22:07.899Z,99.90
2019-01-27T00:24:39.772Z,99.90
2019-01-27T00:27:11.488Z,99.90
2019-01-27T00:29:43.303Z,99.90
2019-01-27T00:32:15.692Z,99.90
2019-01-27T00:34:47.521Z,99.90
2019-01-27T00:37:19.230Z,99.90
2019-01-27T00:39:51.295Z,99.90
2019-01-27T00:42:23.189Z,99.90
2019-01-27T00:44:55.399Z,99.90
2019-01-27T00:47:27.282Z,99.90
2019-01-27T00:49:58.927Z,99.90
2019-01-27T00:52:32.185Z,99.90
2019-01-27T00:55:04.375Z,99.90
2019-01-27T00:57:36.551Z,99.90
2019-01-27T01:00:11.199Z,99.90
2019-01-27T01:02:42.984Z,99.90
2019-01-27T01:05:14.921Z,99.90
2019-01-27T01:07:47.842Z,99.90
2019-01-27T01:10:23.971Z,99.90
2019-01-27T01:12:55.959Z,99.90
2019-01-27T01:15:28.130Z,99.90
2019-01-27T01:17:59.966Z,99.90
2019-01-27T01:20:31.724Z,99.90
2019-01-27T01:23:03.719Z,99.90
2019-01-27T01:25:35.395Z,99.90
2019-01-27T01:28:07.561Z,99.90
2019-01-27T01:30:39.198Z,99.90
2019-01-27T01:33:11.089Z,99.90
2019-01-27T01:35:43.117Z,99.90
2019-01-27T01:38:14.812Z,99.90
2019-01-27T01:40:47.978Z,99.90
2019-01-27T01:43:20.019Z,99.90
2019-01-27T01:45:52.112Z,99.90
2019-01-27T01:48:26.705Z,99.90
2019-01-27T01:50:58.688Z,99.90
2019-01-27T01:53:30.371Z,99.90
2019-01-27T01:56:02.505Z,99.90
2019-01-27T01:58:36.620Z,99.90
2019-01-27T02:01:09.101Z,99.90
2019-01-27T02:03:41.287Z,99.90
2019-01-27T02:06:13.033Z,99.90
2019-01-27T02:08:45.676Z,99.90
2019-01-27T02:11:17.749Z,99.90
2019-01-27T02:13:50.941Z,99.90
2019-01-27T02:16:23.064Z,99.90
2019-01-27T02:18:54.871Z,99.90
2019-01-27T02:21:26.646Z,99.90
2019-01-27T02:23:58.962Z,99.90
2019-01-27T02:26:33.644Z,99.90
2019-01-27T02:29:08.569Z,99.90
2019-01-27T02:31:40.762Z,99.90
2019-01-27T02:34:12.864Z,99.90
2019-01-27T02:36:46.147Z,99.90
2019-01-27T02:39:17.962Z,99.90
2019-01-27T02:41:49.759Z,99.90
2019-01-27T02:44:21.448Z,99.90
2019-01-27T02:46:53.593Z,99.90
2019-01-27T02:49:26.067Z,99.90
2019-01-27T02:51:57.829Z,99.90
2019-01-27T02:54:29.597Z,99.90
2019-01-27T02:57:02.474Z,99.90
2019-01-27T02:59:34.817Z,99.90
2019-01-27T03:02:10.350Z,99.90
2019-01-27T03:04:42.207Z,99.90
2019-01-27T03:07:16.282Z,99.90
2019-01-27T03:09:50.414Z,99.90
2019-01-27T03:12:22.278Z,99.90
2019-01-27T03:14:54.011Z,99.90
2019-01-27T03:17:27.246Z,99.90
2019-01-27T03:19:59.600Z,99.90
2019-01-27T03:22:31.444Z,99.90
2019-01-27T03:25:04.431Z,99.90
2019-01-27T03:27:36.531Z,99.90
2019-01-27T03:30:18.090Z,99.90
2019-01-27T03:32:50.055Z,99.90
2019-01-27T03:35:21.902Z,99.90
2019-01-27T03:37:54.073Z,99.90
2019-01-27T03:40:25.863Z,99.90
2019-01-27T03:42:57.718Z,99.90
2019-01-27T03:45:32.599Z,99.90
2019-01-27T03:48:04.444Z,99.90
2019-01-27T03:50:37.130Z,99.90
2019-01-27T03:53:15.974Z,99.90
2019-01-27T03:55:48.743Z,99.90
2019-01-27T03:58:23.215Z,99.90
2019-01-27T04:00:56.874Z,99.90
2019-01-27T04:03:29.082Z,99.90
2019-01-27T04:06:02.266Z,99.90
2019-01-27T04:08:36.790Z,99.90
2019-01-27T04:11:11.572Z,99.90
2019-01-27T04:13:44.451Z,99.90
2019-01-27T04:16:16.763Z,99.90
2019-01-27T04:18:48.644Z,99.90
2019-01-27T04:21:20.498Z,99.90
2019-01-27T04:23:52.593Z,99.90
2019-01-27T04:26:24.302Z,99.90
2019-01-27T04:28:56.012Z,99.90
2019-01-27T04:31:29.916Z,99.90
2019-01-27T04:34:02.074Z,99.90
2019-01-27T04:36:34.026Z,99.90
2019-01-27T04:39:08.997Z,99.90
2019-01-27T04:41:42.252Z,99.90
2019-01-27T04:44:13.944Z,99.90
2019-01-27T04:46:46.143Z,99.90
2019-01-27T04:49:18.104Z,99.90
2019-01-27T04:51:50.527Z,99.90
2019-01-27T04:54:22.773Z,99.90
2019-01-27T04:56:54.550Z,99.90
2019-01-27T04:59:26.694Z,99.90
2019-01-27T05:01:58.669Z,99.90
2019-01-27T05:04:31.809Z,99.90
2019-01-27T05:07:03.487Z,99.90
2019-01-27T05:09:38.034Z,99.90
2019-01-27T05:12:09.865Z,99.90
2019-01-27T05:14:41.760Z,99.90
2019-01-27T05:17:13.596Z,99.90
2019-01-27T05:19:45.736Z,99.90
2019-01-27T05:22:17.448Z,99.90
2019-01-27T05:24:49.270Z,99.90
2019-01-27T05:27:25.391Z,99.90
2019-01-27T05:29:57.360Z,99.90
2019-01-27T05:32:29.809Z,99.90
2019-01-27T05:35:01.485Z,99.90
2019-01-27T05:37:33.350Z,99.90
2019-01-27T05:40:07.288Z,99.90
2019-01-27T05:42:39.000Z,99.90
2019-01-27T05:45:13.257Z,99.90
2019-01-27T05:47:45.291Z,99.90
2019-01-27T05:50:18.547Z,99.90
2019-01-27T05:52:50.738Z,99.90
2019-01-27T05:55:23.082Z,99.90
2019-01-27T05:57:54.782Z,99.90
2019-01-27T06:00:32.451Z,99.90
2019-01-27T06:03:04.302Z,99.90
2019-01-27T06:05:36.342Z,99.90
2019-01-27T06:08:07.995Z,99.90
2019-01-27T06:10:40.127Z,99.90
2019-01-27T06:13:12.113Z,99.90
2019-01-27T06:15:44.044Z,99.90
2019-01-27T06:18:15.692Z,99.90
2019-01-27T06:20:47.475Z,99.90
2019-01-27T06:23:19.567Z,99.90
2019-01-27T06:25:51.214Z,99.90
2019-01-27T06:28:23.264Z,99.90
2019-01-27T06:30:54.975Z,99.90
2019-01-27T06:33:31.199Z,99.90
2019-01-27T06:36:02.833Z,99.90
2019-01-27T06:38:34.700Z,99.90
2019-01-27T06:41:06.494Z,99.90
2019-01-27T06:43:38.414Z,99.90
2019-01-27T06:46:10.064Z,99.90
2019-01-27T06:48:42.429Z,99.90
2019-01-27T06:51:14.150Z,99.90
2019-01-27T06:53:45.819Z,99.90
2019-01-27T06:56:17.494Z,99.90
2019-01-27T06:59:08.846Z,99.90
2019-01-27T07:01:42.077Z,99.90
2019-01-27T07:04:17.742Z,99.90
2019-01-27T07:07:02.875Z,99.90
2019-01-27T07:09:39.313Z,99.90
2019-01-27T07:12:28.560Z,99.90
2019-01-27T07:15:07.483Z,99.90
2019-01-27T07:17:58.658Z,99.90
2019-01-27T07:20:34.746Z,99.90
2019-01-27T07:23:10.759Z,99.90
2019-01-27T07:25:55.567Z,99.90
2019-01-27T07:28:28.677Z,99.90
2019-01-27T07:31:04.379Z,99.90
2019-01-27T07:33:39.059Z,99.90
2019-01-27T07:36:12.069Z,99.90
2019-01-27T07:39:01.586Z,99.90
2019-01-27T07:41:40.560Z,99.90
2019-01-27T07:44:22.329Z,99.90
2019-01-27T07:47:04.951Z,99.90
2019-01-27T07:49:41.010Z,99.90
2019-01-27T07:52:20.109Z,99.90
2019-01-27T07:54:53.132Z,99.90
2019-01-27T07:57:44.480Z,99.90
2019-01-27T08:00:38.040Z,99.90
2019-01-27T08:03:12.145Z,99.90
2019-01-27T08:05:45.470Z,99.90
2019-01-27T08:08:35.136Z,99.90
2019-01-27T08:11:25.043Z,99.90
2019-01-27T08:14:06.959Z,99.90
2019-01-27T08:16:56.137Z,99.90
2019-01-27T08:19:38.454Z,99.90
2019-01-27T08:22:17.857Z,99.90
2019-01-27T08:24:50.946Z,99.90
2019-01-27T08:27:24.028Z,99.90
2019-01-27T08:32:26.698Z,99.90
2019-01-27T08:34:59.802Z,99.90
2019-01-27T08:37:32.858Z,99.90
2019-01-27T08:40:07.146Z,99.90
2019-01-27T08:42:41.421Z,99.90
2019-01-27T08:45:15.047Z,99.90
2019-01-27T08:47:46.868Z,99.90
2019-01-27T08:50:18.448Z,99.90
2019-01-27T08:52:50.207Z,99.90
2019-01-27T08:55:21.919Z,99.90
2019-01-27T08:57:53.570Z,99.90
2019-01-27T09:00:26.702Z,99.90
2019-01-27T09:03:03.416Z,99.90
2019-01-27T09:05:46.883Z,99.90
2019-01-27T09:08:19.967Z,99.90
2019-01-27T09:10:53.114Z,99.90
2019-01-27T09:13:26.676Z,99.90
2019-01-27T09:16:12.043Z,99.90
2019-01-27T09:18:45.166Z,99.90
2019-01-27T09:21:18.179Z,99.90
2019-01-27T09:23:51.230Z,99.90
2019-01-27T09:26:24.295Z,99.90
2019-01-27T09:28:57.530Z,99.90
2019-01-27T09:31:42.354Z,99.90
2019-01-27T09:34:21.209Z,99.90
2019-01-27T09:36:57.268Z,99.90
2019-01-27T09:39:30.400Z,99.90
2019-01-27T09:42:03.428Z,99.90
2019-01-27T09:44:36.517Z,99.90
2019-01-27T09:47:24.591Z,99.90
2019-01-27T09:50:06.313Z,99.90
2019-01-27T09:52:42.232Z,99.90
2019-01-27T09:55:24.763Z,99.90
2019-01-27T09:58:04.045Z,99.90
2019-01-27T10:00:39.256Z,99.90
2019-01-27T10:03:12.424Z,99.90
2019-01-27T10:05:57.355Z,99.90
2019-01-27T10:08:46.416Z,99.90
2019-01-27T10:11:26.675Z,99.90
2019-01-27T10:14:11.837Z,99.90
2019-01-27T10:16:50.613Z,99.90
2019-01-27T10:19:40.010Z,99.90
2019-01-27T10:22:16.036Z,99.90
2019-01-27T10:24:52.006Z,99.90
2019-01-27T10:27:30.988Z,99.90
2019-01-27T10:30:16.260Z,99.90
2019-01-27T10:32:49.334Z,99.90
2019-01-27T10:35:42.793Z,99.90
2019-01-27T10:38:17.858Z,99.90
2019-01-27T10:40:51.241Z,99.90
2019-01-27T10:43:26.786Z,99.90
2019-01-27T10:46:02.686Z,99.90
2019-01-27T10:48:35.746Z,99.90
2019-01-27T10:51:27.457Z,99.90
2019-01-27T10:54:00.409Z,99.90
2019-01-27T10:56:33.528Z,99.90
2019-01-27T10:59:07.242Z,99.90
2019-01-27T11:01:40.342Z,99.90
2019-01-27T11:04:27.215Z,99.90
2019-01-27T11:07:06.097Z,99.90
2019-01-27T11:09:47.991Z,99.90
2019-01-27T11:12:21.104Z,99.90
2019-01-27T11:14:59.663Z,99.90
2019-01-27T11:17:35.289Z,99.90
2019-01-27T11:20:16.863Z,99.90
2019-01-27T11:22:56.106Z,99.90
2019-01-27T11:25:38.185Z,99.90
2019-01-27T11:28:29.653Z,99.90
2019-01-27T11:31:05.632Z,99.90
2019-01-27T11:33:41.751Z,99.90
2019-01-27T11:36:20.483Z,99.90
2019-01-27T11:39:03.147Z,99.90
2019-01-27T11:41:36.214Z,99.90
2019-01-27T11:44:12.109Z,99.90
2019-01-27T11:47:02.176Z,99.90
2019-01-27T11:49:35.216Z,99.90
2019-01-27T11:52:06.984Z,99.90
2019-01-27T11:54:38.731Z,99.90
2019-01-27T11:57:10.456Z,99.90
2019-01-27T11:59:42.315Z,99.90
2019-01-27T12:02:13.980Z,99.90
2019-01-27T12:04:47.246Z,99.90
2019-01-27T12:07:18.902Z,99.90
2019-01-27T12:09:50.644Z,99.90
2019-01-27T12:12:22.376Z,99.90
2019-01-27T12:14:54.026Z,99.90
2019-01-27T12:17:25.687Z,99.90
2019-01-27T12:19:57.351Z,99.90
2019-01-27T12:22:29.125Z,99.90
2019-01-27T12:25:00.850Z,99.90
2019-01-27T12:27:34.490Z,99.90
2019-01-27T12:30:08.305Z,99.90
2019-01-27T12:32:40.017Z,99.90
2019-01-27T12:35:11.983Z,99.90
2019-01-27T12:37:43.745Z,99.90
2019-01-27T12:40:18.008Z,99.90
2019-01-27T12:42:49.805Z,99.90
2019-01-27T12:45:23.175Z,99.90
2019-01-27T12:47:54.899Z,99.90
2019-01-27T12:50:26.652Z,99.90
2019-01-27T12:52:58.259Z,99.90
2019-01-27T12:55:30.036Z,99.90
2019-01-27T12:58:01.699Z,99.90
2019-01-27T13:00:42.576Z,99.90
2019-01-27T13:03:14.281Z,99.90
2019-01-27T13:05:45.894Z,99.90
2019-01-27T13:08:17.712Z,99.90
2019-01-27T13:10:49.532Z,99.90
2019-01-27T13:13:21.602Z,99.90
2019-01-27T13:15:53.745Z,99.90
2019-01-27T13:18:25.446Z,99.90
2019-01-27T13:20:57.147Z,99.90
2019-01-27T13:23:29.221Z,99.90
2019-01-27T13:26:00.964Z,99.90
2019-01-27T13:28:32.623Z,99.90
2019-01-27T13:31:04.477Z,99.90
2019-01-27T13:33:36.744Z,99.90
2019-01-27T13:36:10.569Z,99.90
2019-01-27T13:38:42.407Z,99.90
2019-01-27T13:41:14.171Z,99.90
2019-01-27T13:43:45.842Z,99.90
2019-01-27T13:46:17.960Z,99.90
2019-01-27T13:48:51.312Z,99.90
2019-01-27T13:51:23.046Z,99.90
2019-01-27T13:53:54.867Z,99.90
2019-01-27T13:56:26.604Z,99.90
2019-01-27T13:58:58.308Z,99.90
2019-01-27T14:01:30.400Z,99.90
2019-01-27T14:04:02.402Z,99.90
2019-01-27T14:06:34.075Z,99.90
2019-01-27T14:09:08.007Z,99.90
2019-01-27T14:11:39.647Z,99.90
2019-01-27T14:14:11.651Z,99.90
2019-01-27T14:16:43.463Z,99.90
2019-01-27T14:19:15.740Z,99.90
2019-01-27T14:21:47.842Z,99.90
2019-01-27T14:24:19.580Z,99.90
2019-01-27T14:26:51.934Z,99.90
2019-01-27T14:29:24.894Z,99.90
2019-01-27T14:31:56.691Z,99.90
2019-01-27T14:34:28.578Z,99.90
2019-01-27T14:37:00.316Z,99.90
2019-01-27T14:39:32.036Z,99.90
2019-01-27T14:42:04.301Z,99.90
2019-01-27T14:44:36.435Z,99.90
2019-01-27T14:47:08.417Z,99.90
2019-01-27T14:49:40.063Z,99.90
2019-01-27T14:52:11.818Z,99.90
2019-01-27T14:54:44.392Z,99.90
2019-01-27T14:57:16.082Z,99.90
2019-01-27T14:59:48.814Z,99.90
2019-01-27T15:02:20.463Z,99.90
2019-01-27T15:04:52.127Z,99.90
2019-01-27T15:07:23.911Z,99.90
2019-01-27T15:09:57.051Z,99.90
2019-01-27T15:12:29.245Z,99.90
2019-01-27T15:15:01.292Z,99.90
2019-01-27T15:17:33.207Z,99.90
2019-01-27T15:20:06.563Z,99.90
2019-01-27T15:22:38.506Z,99.90
2019-01-27T15:25:11.344Z,99.90
2019-01-27T15:27:43.483Z,99.90
2019-01-27T15:30:27.256Z,99.90
2019-01-27T15:32:59.968Z,99.90
2019-01-27T15:35:32.220Z,99.90
2019-01-27T15:38:04.488Z,99.90
2019-01-27T15:40:36.147Z,99.90
2019-01-27T15:43:07.895Z,99.90
2019-01-27T15:45:40.348Z,99.90
2019-01-27T15:48:12.792Z,99.90
2019-01-27T15:50:44.521Z,99.90
2019-01-27T15:53:16.356Z,99.90
2019-01-27T15:55:48.132Z,99.90
2019-01-27T15:58:19.876Z,99.90
2019-01-27T16:00:51.512Z,99.90
2019-01-27T16:03:23.508Z,99.90
2019-01-27T16:05:55.139Z,99.90
2019-01-27T16:08:27.610Z,99.90
2019-01-27T16:11:00.117Z,99.90
2019-01-27T16:13:31.896Z,99.90
2019-01-27T16:16:03.582Z,99.90
2019-01-27T16:18:35.466Z,99.90
2019-01-27T16:21:07.622Z,99.90
2019-01-27T16:23:40.872Z,99.90
2019-01-27T16:26:12.514Z,99.90
2019-01-27T16:28:44.318Z,99.10
2019-01-27T16:31:23.616Z,96.90
2019-01-27T16:33:59.452Z,96.10
2019-01-27T16:36:31.409Z,95.80
2019-01-27T16:39:03.603Z,96.50
2019-01-27T16:41:36.027Z,95.80
2019-01-27T16:44:08.217Z,96.20
2019-01-27T16:46:39.923Z,96.40
2019-01-27T16:49:12.494Z,96.50
2019-01-27T16:52:01.888Z,95.80
2019-01-27T16:54:19.170Z,94.30
2019-01-27T16:56:50.927Z,94.40
2019-01-27T16:59:22.621Z,93.20
2019-01-27T17:01:59.031Z,92.80
2019-01-27T17:04:29.370Z,93.50
2019-01-27T17:07:02.192Z,93.30
2019-01-27T17:09:34.390Z,91.60
2019-01-27T17:12:09.354Z,92.30
2019-01-27T17:14:41.742Z,91.90
2019-01-27T17:17:15.113Z,90.20
2019-01-27T17:19:48.294Z,90.80
2019-01-27T17:22:21.731Z,92.50
2019-01-27T17:24:53.579Z,92.90
2019-01-27T17:27:25.829Z,92.60
2019-01-27T17:29:57.754Z,92.30
2019-01-27T17:32:29.583Z,91.70
2019-01-27T17:35:02.055Z,90.10
2019-01-27T17:37:34.158Z,88.60
2019-01-27T17:40:09.035Z,89.70
2019-01-27T17:42:41.123Z,90.30
2019-01-27T17:45:21.472Z,91.30
2019-01-27T17:47:54.070Z,91.40
2019-01-27T17:50:27.820Z,91.10
2019-01-27T17:52:59.651Z,90.20
2019-01-27T17:55:42.146Z,89.60
2019-01-27T17:58:24.302Z,88.40
2019-01-27T18:01:00.770Z,84.20
2019-01-27T18:03:49.547Z,87.20
2019-01-27T18:06:23.409Z,88.00
2019-01-27T18:08:56.865Z,90.50
2019-01-27T18:11:30.508Z,90.70
2019-01-27T18:14:04.025Z,90.70
2019-01-27T18:16:38.969Z,91.50
2019-01-27T18:19:10.937Z,91.60
2019-01-27T18:21:43.609Z,92.00
2019-01-27T18:24:16.080Z,91.20
2019-01-27T18:26:48.214Z,91.00
2019-01-27T18:29:19.959Z,91.80
2019-01-27T18:31:52.406Z,91.20
2019-01-27T18:34:24.681Z,90.50
2019-01-27T18:36:57.351Z,89.60
2019-01-27T18:39:29.458Z,90.90
2019-01-27T18:42:04.095Z,91.50
2019-01-27T18:44:36.354Z,90.20
2019-01-27T18:47:08.594Z,90.10
2019-01-27T18:49:40.611Z,88.20
2019-01-27T18:52:12.631Z,86.80
2019-01-27T18:54:49.376Z,89.70
2019-01-27T18:57:28.572Z,88.80
2019-01-27T19:00:18.554Z,90.10
2019-01-27T19:02:54.499Z,89.80
2019-01-27T19:05:30.943Z,90.40
2019-01-27T19:08:05.797Z,90.70
2019-01-27T19:10:43.002Z,91.20
2019-01-27T19:13:38.128Z,92.30
2019-01-27T19:16:26.930Z,91.50
2019-01-27T19:19:02.013Z,91.20
2019-01-27T19:21:44.094Z,91.70
2019-01-27T19:24:32.265Z,92.10
2019-01-27T19:27:05.379Z,90.80
2019-01-27T19:29:38.724Z,91.80
2019-01-27T19:32:15.066Z,92.80
2019-01-27T19:34:48.424Z,92.20
2019-01-27T19:37:22.040Z,91.20
2019-01-27T19:40:11.430Z,90.50
2019-01-27T19:42:59.754Z,91.30
2019-01-27T19:45:32.819Z,91.30
2019-01-27T19:48:15.212Z,91.10
2019-01-27T19:50:48.248Z,91.40
2019-01-27T19:53:27.233Z,92.40
2019-01-27T19:56:09.559Z,91.80
2019-01-27T19:58:42.719Z,92.50
2019-01-27T20:01:15.936Z,93.20
2019-01-27T20:03:52.491Z,93.90
2019-01-27T20:06:28.214Z,92.60
2019-01-27T20:09:20.671Z,92.10
2019-01-27T20:12:10.117Z,92.60
2019-01-27T20:14:52.009Z,93.30
2019-01-27T20:17:25.113Z,94.00
2019-01-27T20:20:01.575Z,93.90
2019-01-27T20:22:34.938Z,95.00
2019-01-27T20:25:28.801Z,94.50
2019-01-27T20:28:07.723Z,93.60
2019-01-27T20:30:57.269Z,93.60
2019-01-27T20:33:33.456Z,94.70
2019-01-27T20:36:16.466Z,95.60
2019-01-27T20:38:55.560Z,95.50
2019-01-27T20:41:28.732Z,96.90
2019-01-27T20:44:10.927Z,95.90
2019-01-27T20:46:56.354Z,95.80
2019-01-27T20:49:45.816Z,95.80
2019-01-27T20:52:35.003Z,96.00
2019-01-27T20:55:22.115Z,97.00
2019-01-27T20:57:58.424Z,96.00
2019-01-27T21:00:31.758Z,95.80
2019-01-27T21:03:04.867Z,96.80
2019-01-27T21:05:41.186Z,96.30
2019-01-27T21:08:14.593Z,96.40
2019-01-27T21:10:53.980Z,96.60
2019-01-27T21:13:29.553Z,97.60
2019-01-27T21:16:02.650Z,98.50
2019-01-27T21:18:36.122Z,98.70
2019-01-27T21:21:08.496Z,98.50
2019-01-27T21:23:40.214Z,99.40
2019-01-27T21:26:12.291Z,99.90
2019-01-27T21:28:44.570Z,99.30
2019-01-27T21:31:16.271Z,99.80
2019-01-27T21:33:48.991Z,99.90
2019-01-27T21:36:20.845Z,99.90
2019-01-27T21:38:52.619Z,99.90
2019-01-27T21:41:25.078Z,99.90
2019-01-27T21:43:56.879Z,99.90
2019-01-27T21:46:29.288Z,99.90
2019-01-27T21:49:01.849Z,99.90
2019-01-27T21:51:33.730Z,99.90
2019-01-27T21:54:07.012Z,99.90
2019-01-27T21:56:39.375Z,99.90
2019-01-27T21:59:11.171Z,99.90
2019-01-27T22:01:44.384Z,99.90
2019-01-27T22:04:16.271Z,99.90
2019-01-27T22:06:48.206Z,99.90
2019-01-27T22:09:20.017Z,99.90
2019-01-27T22:11:51.927Z,99.90
2019-01-27T22:14:23.643Z,99.90
2019-01-27T22:16:55.419Z,99.90
2019-01-27T22:19:28.175Z,99.90
2019-01-27T22:22:00.204Z,99.90
2019-01-27T22:24:32.556Z,99.90
2019-01-27T22:27:04.542Z,99.90
2019-01-27T22:29:36.420Z,99.90
2019-01-27T22:32:08.857Z,99.90
2019-01-27T22:34:40.849Z,99.90
2019-01-27T22:37:12.542Z,99.90
2019-01-27T22:39:44.667Z,99.90
2019-01-27T22:42:16.549Z,99.90
2019-01-27T22:44:48.631Z,99.90
2019-01-27T22:47:21.070Z,99.90
2019-01-27T22:49:53.135Z,99.90
2019-01-27T22:52:25.008Z,99.90
2019-01-27T22:54:57.270Z,99.90
2019-01-27T22:57:29.136Z,99.90
2019-01-27T23:00:00.837Z,99.90
2019-01-27T23:02:33.770Z,99.90
2019-01-27T23:05:06.482Z,99.90
2019-01-27T23:07:38.569Z,99.90
2019-01-27T23:10:10.816Z,99.90
2019-01-27T23:12:43.336Z,99.90
2019-01-27T23:15:15.396Z,99.90
2019-01-27T23:17:47.502Z,99.90
2019-01-27T23:20:19.483Z,99.90
2019-01-27T23:22:51.281Z,99.90
2019-01-27T23:25:23.276Z,99.90
2019-01-27T23:27:55.106Z,99.90
2019-01-27T23:30:27.428Z,99.90
2019-01-27T23:32:59.114Z,99.90
2019-01-27T23:35:31.383Z,99.90
2019-01-27T23:38:03.752Z,99.90
2019-01-27T23:40:35.740Z,99.90
2019-01-27T23:43:07.416Z,99.90
2019-01-27T23:45:39.102Z,99.90
2019-01-27T23:48:10.847Z,99.90
2019-01-27T23:50:42.984Z,99.90
2019-01-27T23:53:14.988Z,99.90
2019-01-27T23:55:46.978Z,99.90
2019-01-27T23:58:19.955Z,99.90
